sensor_id;sensor_type;location;lat;lon;timestamp;temperature;humidity
69281;SHT31;56392;51.082;17.080;2022-07-09T00:02:18;18.47;61.72
69281;SHT31;56392;51.082;17.080;2022-07-09T00:07:21;18.30;62.66
69281;SHT31;56392;51.082;17.080;2022-07-09T00:12:25;18.25;62.61
69281;SHT31;56392;51.082;17.080;2022-07-09T00:17:28;18.17;62.61
69281;SHT31;56392;51.082;17.080;2022-07-09T00:22:32;18.07;62.98
69281;SHT31;56392;51.082;17.080;2022-07-09T00:27:36;17.96;63.50
69281;SHT31;56392;51.082;17.080;2022-07-09T00:32:39;17.96;63.67
69281;SHT31;56392;51.082;17.080;2022-07-09T00:37:42;17.89;63.84
69281;SHT31;56392;51.082;17.080;2022-07-09T00:42:46;17.91;63.76
69281;SHT31;56392;51.082;17.080;2022-07-09T00:47:48;17.98;63.57
69281;SHT31;56392;51.082;17.080;2022-07-09T00:52:51;17.96;64.09
69281;SHT31;56392;51.082;17.080;2022-07-09T00:57:55;18.05;63.46
69281;SHT31;56392;51.082;17.080;2022-07-09T01:02:58;18.05;63.52
69281;SHT31;56392;51.082;17.080;2022-07-09T01:08:02;17.82;64.81
69281;SHT31;56392;51.082;17.080;2022-07-09T01:13:06;17.72;64.87
69281;SHT31;56392;51.082;17.080;2022-07-09T01:18:09;17.63;65.32
69281;SHT31;56392;51.082;17.080;2022-07-09T01:23:15;17.53;65.60
69281;SHT31;56392;51.082;17.080;2022-07-09T01:28:17;17.33;66.28
69281;SHT31;56392;51.082;17.080;2022-07-09T01:33:20;17.29;66.39
69281;SHT31;56392;51.082;17.080;2022-07-09T01:38:25;17.18;66.73
69281;SHT31;56392;51.082;17.080;2022-07-09T01:43:27;17.22;67.34
69281;SHT31;56392;51.082;17.080;2022-07-09T01:48:33;17.25;67.82
69281;SHT31;56392;51.082;17.080;2022-07-09T01:53:38;17.25;67.26
69281;SHT31;56392;51.082;17.080;2022-07-09T01:58:41;17.36;67.35
69281;SHT31;56392;51.082;17.080;2022-07-09T02:03:45;17.49;67.34
69281;SHT31;56392;51.082;17.080;2022-07-09T02:08:49;17.67;66.57
69281;SHT31;56392;51.082;17.080;2022-07-09T02:13:51;17.74;66.35
69281;SHT31;56392;51.082;17.080;2022-07-09T02:18:54;17.80;66.42
69281;SHT31;56392;51.082;17.080;2022-07-09T02:23:58;17.83;66.04
69281;SHT31;56392;51.082;17.080;2022-07-09T02:29:01;17.82;66.23
69281;SHT31;56392;51.082;17.080;2022-07-09T02:34:04;17.83;66.12
69281;SHT31;56392;51.082;17.080;2022-07-09T02:39:08;17.90;65.71
69281;SHT31;56392;51.082;17.080;2022-07-09T02:44:11;17.94;65.73
69281;SHT31;56392;51.082;17.080;2022-07-09T02:49:13;17.84;66.27
69281;SHT31;56392;51.082;17.080;2022-07-09T02:54:17;17.90;66.32
69281;SHT31;56392;51.082;17.080;2022-07-09T02:59:20;17.90;66.06
69281;SHT31;56392;51.082;17.080;2022-07-09T03:04:23;17.69;67.05
69281;SHT31;56392;51.082;17.080;2022-07-09T03:09:27;17.54;67.43
69281;SHT31;56392;51.082;17.080;2022-07-09T03:14:30;17.53;67.39
69281;SHT31;56392;51.082;17.080;2022-07-09T03:19:32;17.50;67.62
69281;SHT31;56392;51.082;17.080;2022-07-09T03:24:37;17.57;67.45
69281;SHT31;56392;51.082;17.080;2022-07-09T03:29:39;17.47;68.13
69281;SHT31;56392;51.082;17.080;2022-07-09T03:34:42;17.28;68.81
69281;SHT31;56392;51.082;17.080;2022-07-09T03:39:46;17.26;68.99
69281;SHT31;56392;51.082;17.080;2022-07-09T03:44:49;17.31;68.76
69281;SHT31;56392;51.082;17.080;2022-07-09T03:49:51;17.35;68.80
69281;SHT31;56392;51.082;17.080;2022-07-09T03:54:56;17.45;68.24
69281;SHT31;56392;51.082;17.080;2022-07-09T03:59:58;17.45;69.13
69281;SHT31;56392;51.082;17.080;2022-07-09T04:05:01;17.50;68.49
69281;SHT31;56392;51.082;17.080;2022-07-09T04:10:07;17.52;68.02
69281;SHT31;56392;51.082;17.080;2022-07-09T04:15:10;17.57;67.90
69281;SHT31;56392;51.082;17.080;2022-07-09T04:20:13;17.62;67.65
69281;SHT31;56392;51.082;17.080;2022-07-09T04:25:17;17.66;67.64
69281;SHT31;56392;51.082;17.080;2022-07-09T04:30:20;17.84;67.13
69281;SHT31;56392;51.082;17.080;2022-07-09T04:35:23;18.00;66.59
69281;SHT31;56392;51.082;17.080;2022-07-09T04:40:27;18.27;66.40
69281;SHT31;56392;51.082;17.080;2022-07-09T04:45:30;18.52;65.33
69281;SHT31;56392;51.082;17.080;2022-07-09T04:50:33;18.72;65.06
69281;SHT31;56392;51.082;17.080;2022-07-09T04:55:37;18.88;64.75
69281;SHT31;56392;51.082;17.080;2022-07-09T05:00:40;19.03;64.15
69281;SHT31;56392;51.082;17.080;2022-07-09T05:05:43;18.95;64.40
69281;SHT31;56392;51.082;17.080;2022-07-09T05:10:47;19.03;63.97
69281;SHT31;56392;51.082;17.080;2022-07-09T05:15:50;18.95;64.15
69281;SHT31;56392;51.082;17.080;2022-07-09T05:20:52;19.40;63.15
69281;SHT31;56392;51.082;17.080;2022-07-09T05:25:56;20.98;59.00
69281;SHT31;56392;51.082;17.080;2022-07-09T05:30:59;20.98;58.62
69281;SHT31;56392;51.082;17.080;2022-07-09T05:36:02;20.88;59.28
69281;SHT31;56392;51.082;17.080;2022-07-09T05:41:06;21.42;57.40
69281;SHT31;56392;51.082;17.080;2022-07-09T05:46:11;23.71;51.22
69281;SHT31;56392;51.082;17.080;2022-07-09T05:51:14;23.01;53.68
69281;SHT31;56392;51.082;17.080;2022-07-09T05:56:18;22.83;54.32
69281;SHT31;56392;51.082;17.080;2022-07-09T06:01:20;22.69;55.20
69281;SHT31;56392;51.082;17.080;2022-07-09T06:06:23;23.01;54.17
69281;SHT31;56392;51.082;17.080;2022-07-09T06:11:27;23.46;52.88
69281;SHT31;56392;51.082;17.080;2022-07-09T06:16:29;24.28;49.94
69281;SHT31;56392;51.082;17.080;2022-07-09T06:21:32;24.37;50.59
69281;SHT31;56392;51.082;17.080;2022-07-09T06:26:36;24.62;49.39
69281;SHT31;56392;51.082;17.080;2022-07-09T06:31:40;25.85;48.66
69281;SHT31;56392;51.082;17.080;2022-07-09T06:36:43;27.57;44.53
69281;SHT31;56392;51.082;17.080;2022-07-09T06:41:48;31.39;34.42
69281;SHT31;56392;51.082;17.080;2022-07-09T06:46:51;35.66;28.55
69281;SHT31;56392;51.082;17.080;2022-07-09T06:51:54;36.05;29.01
69281;SHT31;56392;51.082;17.080;2022-07-09T06:56:58;33.28;31.40
69281;SHT31;56392;51.082;17.080;2022-07-09T07:02:01;32.32;31.54
69281;SHT31;56392;51.082;17.080;2022-07-09T07:07:05;30.92;34.89
69281;SHT31;56392;51.082;17.080;2022-07-09T07:12:09;28.90;37.78
69281;SHT31;56392;51.082;17.080;2022-07-09T07:17:11;28.00;39.10
69281;SHT31;56392;51.082;17.080;2022-07-09T07:22:14;27.48;40.78
69281;SHT31;56392;51.082;17.080;2022-07-09T07:27:18;33.38;29.91
69281;SHT31;56392;51.082;17.080;2022-07-09T07:32:21;28.67;37.35
69281;SHT31;56392;51.082;17.080;2022-07-09T07:37:23;30.17;34.56
69281;SHT31;56392;51.082;17.080;2022-07-09T07:42:27;31.88;31.59
69281;SHT31;56392;51.082;17.080;2022-07-09T07:47:30;32.31;30.20
69281;SHT31;56392;51.082;17.080;2022-07-09T07:52:32;28.87;34.35
69281;SHT31;56392;51.082;17.080;2022-07-09T07:57:36;26.98;37.08
69281;SHT31;56392;51.082;17.080;2022-07-09T08:02:39;27.76;36.68
69281;SHT31;56392;51.082;17.080;2022-07-09T08:07:41;27.20;36.56
69281;SHT31;56392;51.082;17.080;2022-07-09T08:12:46;27.84;36.80
69281;SHT31;56392;51.082;17.080;2022-07-09T08:17:48;26.94;37.84
69281;SHT31;56392;51.082;17.080;2022-07-09T08:22:50;26.50;38.43
69281;SHT31;56392;51.082;17.080;2022-07-09T08:27:55;26.15;37.66
69281;SHT31;56392;51.082;17.080;2022-07-09T08:32:57;26.64;38.29
69281;SHT31;56392;51.082;17.080;2022-07-09T08:38:00;26.26;38.18
69281;SHT31;56392;51.082;17.080;2022-07-09T08:43:04;26.32;38.56
69281;SHT31;56392;51.082;17.080;2022-07-09T08:48:07;26.83;37.67
69281;SHT31;56392;51.082;17.080;2022-07-09T08:53:10;27.47;36.50
69281;SHT31;56392;51.082;17.080;2022-07-09T08:58:15;27.65;34.85
69281;SHT31;56392;51.082;17.080;2022-07-09T09:03:18;27.66;35.72
69281;SHT31;56392;51.082;17.080;2022-07-09T09:08:21;27.61;35.80
69281;SHT31;56392;51.082;17.080;2022-07-09T09:13:26;27.65;34.64
69281;SHT31;56392;51.082;17.080;2022-07-09T09:18:29;27.86;34.21
69281;SHT31;56392;51.082;17.080;2022-07-09T09:23:39;27.90;33.72
69281;SHT31;56392;51.082;17.080;2022-07-09T09:28:48;28.12;34.53
69281;SHT31;56392;51.082;17.080;2022-07-09T09:33:52;28.26;33.19
69281;SHT31;56392;51.082;17.080;2022-07-09T09:39:07;28.60;32.98
69281;SHT31;56392;51.082;17.080;2022-07-09T09:44:12;28.19;33.88
69281;SHT31;56392;51.082;17.080;2022-07-09T09:49:16;27.86;33.04
69281;SHT31;56392;51.082;17.080;2022-07-09T09:54:20;27.70;32.58
69281;SHT31;56392;51.082;17.080;2022-07-09T09:59:25;31.25;28.52
69281;SHT31;56392;51.082;17.080;2022-07-09T10:04:28;35.75;23.16
69281;SHT31;56392;51.082;17.080;2022-07-09T10:09:31;34.42;24.55
69281;SHT31;56392;51.082;17.080;2022-07-09T10:14:37;33.21;26.71
69281;SHT31;56392;51.082;17.080;2022-07-09T10:19:51;32.59;26.83
69281;SHT31;56392;51.082;17.080;2022-07-09T10:24:55;36.85;22.98
69281;SHT31;56392;51.082;17.080;2022-07-09T10:29:59;37.02;22.05
69281;SHT31;56392;51.082;17.080;2022-07-09T10:35:05;37.19;22.04
69281;SHT31;56392;51.082;17.080;2022-07-09T10:40:10;35.37;23.99
69281;SHT31;56392;51.082;17.080;2022-07-09T10:45:36;34.12;24.83
69281;SHT31;56392;51.082;17.080;2022-07-09T10:50:41;33.64;25.38
69281;SHT31;56392;51.082;17.080;2022-07-09T10:55:45;33.58;26.52
69281;SHT31;56392;51.082;17.080;2022-07-09T11:00:56;33.10;26.43
69281;SHT31;56392;51.082;17.080;2022-07-09T11:05:59;31.22;28.07
69281;SHT31;56392;51.082;17.080;2022-07-09T11:11:01;29.87;29.73
69281;SHT31;56392;51.082;17.080;2022-07-09T11:16:06;29.20;30.79
69281;SHT31;56392;51.082;17.080;2022-07-09T11:21:09;28.75;31.81
69281;SHT31;56392;51.082;17.080;2022-07-09T11:26:14;28.30;32.22
69281;SHT31;56392;51.082;17.080;2022-07-09T11:31:18;27.84;33.20
69281;SHT31;56392;51.082;17.080;2022-07-09T11:36:21;27.68;33.84
69281;SHT31;56392;51.082;17.080;2022-07-09T11:41:24;27.49;34.10
69281;SHT31;56392;51.082;17.080;2022-07-09T11:46:28;27.08;35.05
69281;SHT31;56392;51.082;17.080;2022-07-09T11:51:31;27.10;34.98
69281;SHT31;56392;51.082;17.080;2022-07-09T11:56:41;27.01;34.51
69281;SHT31;56392;51.082;17.080;2022-07-09T12:01:47;26.67;35.14
69281;SHT31;56392;51.082;17.080;2022-07-09T12:06:50;27.11;35.44
69281;SHT31;56392;51.082;17.080;2022-07-09T12:11:53;27.31;35.08
69281;SHT31;56392;51.082;17.080;2022-07-09T12:16:58;27.07;34.97
69281;SHT31;56392;51.082;17.080;2022-07-09T12:22:01;27.20;35.18
69281;SHT31;56392;51.082;17.080;2022-07-09T12:27:03;27.10;36.16
69281;SHT31;56392;51.082;17.080;2022-07-09T12:32:07;26.69;37.85
69281;SHT31;56392;51.082;17.080;2022-07-09T12:37:10;26.87;36.56
69281;SHT31;56392;51.082;17.080;2022-07-09T12:42:13;26.98;36.52
69281;SHT31;56392;51.082;17.080;2022-07-09T12:47:17;27.04;36.80
69281;SHT31;56392;51.082;17.080;2022-07-09T12:52:19;26.87;37.62
69281;SHT31;56392;51.082;17.080;2022-07-09T12:57:22;26.31;37.81
69281;SHT31;56392;51.082;17.080;2022-07-09T13:02:26;25.95;38.56
69281;SHT31;56392;51.082;17.080;2022-07-09T13:07:29;25.99;38.95
69281;SHT31;56392;51.082;17.080;2022-07-09T13:12:32;26.05;38.36
69281;SHT31;56392;51.082;17.080;2022-07-09T13:17:39;25.73;38.27
69281;SHT31;56392;51.082;17.080;2022-07-09T13:22:43;25.66;39.41
69281;SHT31;56392;51.082;17.080;2022-07-09T13:27:45;25.34;40.09
69281;SHT31;56392;51.082;17.080;2022-07-09T13:32:50;25.31;40.49
69281;SHT31;56392;51.082;17.080;2022-07-09T13:37:53;24.89;40.85
69281;SHT31;56392;51.082;17.080;2022-07-09T13:42:55;24.95;40.83
69281;SHT31;56392;51.082;17.080;2022-07-09T13:47:59;24.51;41.58
69281;SHT31;56392;51.082;17.080;2022-07-09T13:53:02;24.48;42.03
69281;SHT31;56392;51.082;17.080;2022-07-09T13:58:05;24.21;43.13
69281;SHT31;56392;51.082;17.080;2022-07-09T14:03:09;23.98;43.71
69281;SHT31;56392;51.082;17.080;2022-07-09T14:08:12;23.93;43.96
69281;SHT31;56392;51.082;17.080;2022-07-09T14:13:14;24.13;42.96
69281;SHT31;56392;51.082;17.080;2022-07-09T14:18:18;23.93;43.75
69281;SHT31;56392;51.082;17.080;2022-07-09T14:23:21;23.74;43.79
69281;SHT31;56392;51.082;17.080;2022-07-09T14:28:24;23.73;43.44
69281;SHT31;56392;51.082;17.080;2022-07-09T14:33:29;23.50;44.57
69281;SHT31;56392;51.082;17.080;2022-07-09T14:38:32;23.65;44.22
69281;SHT31;56392;51.082;17.080;2022-07-09T14:43:36;23.81;44.03
69281;SHT31;56392;51.082;17.080;2022-07-09T14:48:42;24.24;43.46
69281;SHT31;56392;51.082;17.080;2022-07-09T14:53:45;23.92;43.46
69281;SHT31;56392;51.082;17.080;2022-07-09T14:58:48;23.38;44.15
69281;SHT31;56392;51.082;17.080;2022-07-09T15:03:52;23.49;44.25
69281;SHT31;56392;51.082;17.080;2022-07-09T15:08:54;23.65;44.10
69281;SHT31;56392;51.082;17.080;2022-07-09T15:14:00;23.43;44.74
69281;SHT31;56392;51.082;17.080;2022-07-09T15:19:04;23.22;45.69
69281;SHT31;56392;51.082;17.080;2022-07-09T15:24:06;23.18;46.67
69281;SHT31;56392;51.082;17.080;2022-07-09T15:29:09;23.01;46.75
69281;SHT31;56392;51.082;17.080;2022-07-09T15:34:13;22.83;47.54
69281;SHT31;56392;51.082;17.080;2022-07-09T15:39:16;22.88;47.64
69281;SHT31;56392;51.082;17.080;2022-07-09T15:44:18;22.99;47.54
69281;SHT31;56392;51.082;17.080;2022-07-09T15:49:23;23.02;47.31
69281;SHT31;56392;51.082;17.080;2022-07-09T15:54:26;22.77;47.80
69281;SHT31;56392;51.082;17.080;2022-07-09T15:59:29;22.96;47.66
69281;SHT31;56392;51.082;17.080;2022-07-09T16:04:33;22.87;48.12
69281;SHT31;56392;51.082;17.080;2022-07-09T16:09:36;22.67;48.63
69281;SHT31;56392;51.082;17.080;2022-07-09T16:14:38;22.58;49.09
69281;SHT31;56392;51.082;17.080;2022-07-09T16:19:42;22.68;48.90
69281;SHT31;56392;51.082;17.080;2022-07-09T16:24:45;22.40;49.22
69281;SHT31;56392;51.082;17.080;2022-07-09T16:29:48;22.58;47.86
69281;SHT31;56392;51.082;17.080;2022-07-09T16:34:52;22.60;47.93
69281;SHT31;56392;51.082;17.080;2022-07-09T16:39:54;22.26;47.96
69281;SHT31;56392;51.082;17.080;2022-07-09T16:44:57;22.30;47.81
69281;SHT31;56392;51.082;17.080;2022-07-09T16:50:01;22.21;48.04
69281;SHT31;56392;51.082;17.080;2022-07-09T16:55:05;22.24;48.25
69281;SHT31;56392;51.082;17.080;2022-07-09T17:00:26;22.27;48.17
69281;SHT31;56392;51.082;17.080;2022-07-09T17:05:36;22.20;47.94
69281;SHT31;56392;51.082;17.080;2022-07-09T17:10:40;22.03;48.85
69281;SHT31;56392;51.082;17.080;2022-07-09T17:15:43;22.10;48.65
69281;SHT31;56392;51.082;17.080;2022-07-09T17:20:47;21.97;48.68
69281;SHT31;56392;51.082;17.080;2022-07-09T17:25:49;21.83;48.64
69281;SHT31;56392;51.082;17.080;2022-07-09T17:30:52;21.89;49.03
69281;SHT31;56392;51.082;17.080;2022-07-09T17:35:56;22.02;48.60
69281;SHT31;56392;51.082;17.080;2022-07-09T17:40:59;21.81;48.95
69281;SHT31;56392;51.082;17.080;2022-07-09T17:46:01;21.92;48.86
69281;SHT31;56392;51.082;17.080;2022-07-09T17:51:27;21.69;49.51
69281;SHT31;56392;51.082;17.080;2022-07-09T17:56:30;21.75;49.38
69281;SHT31;56392;51.082;17.080;2022-07-09T18:01:33;21.58;49.93
69281;SHT31;56392;51.082;17.080;2022-07-09T18:06:38;21.42;50.66
69281;SHT31;56392;51.082;17.080;2022-07-09T18:11:40;21.27;50.74
69281;SHT31;56392;51.082;17.080;2022-07-09T18:16:43;21.34;50.49
69281;SHT31;56392;51.082;17.080;2022-07-09T18:21:47;21.30;50.43
69281;SHT31;56392;51.082;17.080;2022-07-09T18:26:50;21.12;51.21
69281;SHT31;56392;51.082;17.080;2022-07-09T18:31:53;21.18;51.36
69281;SHT31;56392;51.082;17.080;2022-07-09T18:36:57;20.94;51.78
69281;SHT31;56392;51.082;17.080;2022-07-09T18:42:00;20.81;52.31
69281;SHT31;56392;51.082;17.080;2022-07-09T18:47:03;20.77;52.42
69281;SHT31;56392;51.082;17.080;2022-07-09T18:52:07;20.67;53.83
69281;SHT31;56392;51.082;17.080;2022-07-09T18:57:10;20.55;53.68
69281;SHT31;56392;51.082;17.080;2022-07-09T19:02:13;20.50;54.03
69281;SHT31;56392;51.082;17.080;2022-07-09T19:07:17;20.40;54.53
69281;SHT31;56392;51.082;17.080;2022-07-09T19:12:22;20.26;54.78
69281;SHT31;56392;51.082;17.080;2022-07-09T19:17:26;20.21;55.29
69281;SHT31;56392;51.082;17.080;2022-07-09T19:22:30;20.16;54.95
69281;SHT31;56392;51.082;17.080;2022-07-09T19:27:33;20.16;55.67
69281;SHT31;56392;51.082;17.080;2022-07-09T19:32:36;20.11;55.92
69281;SHT31;56392;51.082;17.080;2022-07-09T19:37:57;19.94;56.44
69281;SHT31;56392;51.082;17.080;2022-07-09T19:43:00;19.96;56.22
69281;SHT31;56392;51.082;17.080;2022-07-09T19:48:03;19.98;56.14
69281;SHT31;56392;51.082;17.080;2022-07-09T19:53:07;19.81;55.73
69281;SHT31;56392;51.082;17.080;2022-07-09T19:58:10;19.68;55.82
69281;SHT31;56392;51.082;17.080;2022-07-09T20:03:13;19.60;56.00
69281;SHT31;56392;51.082;17.080;2022-07-09T20:08:17;19.51;56.70
69281;SHT31;56392;51.082;17.080;2022-07-09T20:13:19;19.53;56.38
69281;SHT31;56392;51.082;17.080;2022-07-09T20:18:22;19.54;56.39
69281;SHT31;56392;51.082;17.080;2022-07-09T20:23:27;19.60;56.48
69281;SHT31;56392;51.082;17.080;2022-07-09T20:28:30;19.40;57.09
69281;SHT31;56392;51.082;17.080;2022-07-09T20:33:32;19.27;57.62
69281;SHT31;56392;51.082;17.080;2022-07-09T20:38:36;19.10;58.03
69281;SHT31;56392;51.082;17.080;2022-07-09T20:43:39;19.12;58.02
69281;SHT31;56392;51.082;17.080;2022-07-09T20:48:45;19.14;57.64
69281;SHT31;56392;51.082;17.080;2022-07-09T20:53:49;19.03;57.89
69281;SHT31;56392;51.082;17.080;2022-07-09T20:58:51;18.96;58.03
69281;SHT31;56392;51.082;17.080;2022-07-09T21:03:55;18.92;58.28
69281;SHT31;56392;51.082;17.080;2022-07-09T21:08:59;18.81;59.42
69281;SHT31;56392;51.082;17.080;2022-07-09T21:14:01;18.71;59.82
69281;SHT31;56392;51.082;17.080;2022-07-09T21:19:04;18.73;60.00
69281;SHT31;56392;51.082;17.080;2022-07-09T21:24:08;18.55;61.50
69281;SHT31;56392;51.082;17.080;2022-07-09T21:29:11;18.42;61.55
69281;SHT31;56392;51.082;17.080;2022-07-09T21:34:14;18.37;61.73
69281;SHT31;56392;51.082;17.080;2022-07-09T21:39:18;18.25;62.90
69281;SHT31;56392;51.082;17.080;2022-07-09T21:44:21;18.25;62.68
69281;SHT31;56392;51.082;17.080;2022-07-09T21:49:24;18.25;63.27
69281;SHT31;56392;51.082;17.080;2022-07-09T21:54:28;18.21;63.58
69281;SHT31;56392;51.082;17.080;2022-07-09T21:59:30;18.23;64.04
69281;SHT31;56392;51.082;17.080;2022-07-09T22:04:33;18.44;63.62
69281;SHT31;56392;51.082;17.080;2022-07-09T22:09:37;18.25;63.71
69281;SHT31;56392;51.082;17.080;2022-07-09T22:14:40;18.38;63.08
69281;SHT31;56392;51.082;17.080;2022-07-09T22:19:43;18.38;62.91
69281;SHT31;56392;51.082;17.080;2022-07-09T22:24:47;18.18;64.21
69281;SHT31;56392;51.082;17.080;2022-07-09T22:29:49;18.41;62.89
69281;SHT31;56392;51.082;17.080;2022-07-09T22:34:52;18.31;63.72
69281;SHT31;56392;51.082;17.080;2022-07-09T22:39:56;18.32;63.53
69281;SHT31;56392;51.082;17.080;2022-07-09T22:44:59;18.20;63.98
69281;SHT31;56392;51.082;17.080;2022-07-09T22:50:02;18.14;64.02
69281;SHT31;56392;51.082;17.080;2022-07-09T22:55:07;17.98;65.20
69281;SHT31;56392;51.082;17.080;2022-07-09T23:00:11;18.13;64.33
69281;SHT31;56392;51.082;17.080;2022-07-09T23:05:16;18.01;64.71
69281;SHT31;56392;51.082;17.080;2022-07-09T23:10:21;17.94;64.95
69281;SHT31;56392;51.082;17.080;2022-07-09T23:15:23;17.82;65.26
69281;SHT31;56392;51.082;17.080;2022-07-09T23:20:26;17.84;65.23
69281;SHT31;56392;51.082;17.080;2022-07-09T23:25:31;17.80;65.49
69281;SHT31;56392;51.082;17.080;2022-07-09T23:30:34;17.79;66.09
69281;SHT31;56392;51.082;17.080;2022-07-09T23:35:38;17.74;66.70
69281;SHT31;56392;51.082;17.080;2022-07-09T23:40:42;17.67;66.71
69281;SHT31;56392;51.082;17.080;2022-07-09T23:45:45;17.45;67.72
69281;SHT31;56392;51.082;17.080;2022-07-09T23:50:48;17.56;67.69
69281;SHT31;56392;51.082;17.080;2022-07-09T23:55:54;17.69;67.09
